Pagina principale
METAR-TAF:

METAR-TAF

Aeroporti :

Aeroporto di Pointe Noire

Pointe-Noire, Congo

latitudine: 04-49S, longitudine: 011-54E, altezza: 17 m

Osservazione

Il bollettino è stato emesso 25 minuti fa, alle 02:00 UTC
Vento 2 kt da direzioni variabili
Temperature 25°C
Umidità 94%
Pressione 1010 hPa
Visibilità: 7000 m
Poco nuvoloso ad un'altezza di 1000 ft

METAR: FCPP 240200Z VRB02KT 7000 FEW010 25/24 Q1010 NOSIG

Ora: 03:25 (02:25 UTC)

Previsione

Il bollettino è stato emesso 3 ore e 25 minuti fa, alle 23:00 UTC
Previsione valida dal 24 alle 00 UTC al 24 alle 24 UTC
Vento 5 kt da sud
Visibilità: 8000 m
Nubi sparse ad un'altezza di 1000 ft
Probabilità 40%
dal 24 alle 15 UTC al 24 alle 19 UTC
Poco nuvoloso ad un'altezza di 1000 ft
Nubi sparse ad un'altezza di 2000 ft
Poco nuvoloso ad un'altezza di 3000 ft, Cumulonembo.

TAF: FCPP 232300Z 2400/2424 18005KT 8000 SCT010 PROB40 2415/2419 FEW010 SCT020 FEW030CB

Osservazioni e previsioni meteorologiche di più di 4000 aeroporti (messaggi METAR e TAF).

Le stazioni disponibili sono rappresentate dai dischi gialli e rossi sulla carta.

Puntare il mouse per vedere il nome della stazione.

Clicca sopra per visualizzare le osservazioni e previsioni meteorologiche.

Per cambiare la mappa : fare clic sui pulsanti verdi con una croce nera per ingrandire, il pulsante verde con un trattino per diminuire, o sulla freccia verde per le mappe adiacenti.


METAR-TAF: